createdAt,value
2024-01-29T00:14:21.517Z,99133.50
2024-01-29T00:34:23.424Z,99147.56
2024-01-29T00:54:25.624Z,99178.66
2024-01-29T01:14:27.406Z,99171.09
2024-01-29T01:34:29.371Z,99160.00
2024-01-29T01:54:31.357Z,99147.75
2024-01-29T02:14:33.271Z,99153.41
2024-01-29T02:34:35.234Z,99153.41
2024-01-29T02:54:37.259Z,99161.63
2024-01-29T03:14:40.062Z,99155.56
2024-01-29T03:34:45.674Z,99167.09
2024-01-29T03:54:47.705Z,99150.16
2024-01-29T04:14:49.606Z,99172.84
2024-01-29T04:34:51.525Z,99186.28
2024-01-29T04:54:53.653Z,99212.25
2024-01-29T05:14:55.551Z,99221.09
2024-01-29T05:34:57.417Z,99242.53
2024-01-29T05:54:59.883Z,99258.91
2024-01-29T06:15:01.973Z,99262.41
2024-01-29T06:35:04.428Z,99287.44
2024-01-29T06:55:07.121Z,99277.28
2024-01-29T07:15:10.157Z,99291.06
2024-01-29T07:35:12.009Z,99297.94
2024-01-29T07:55:13.915Z,99305.72
2024-01-29T08:15:16.797Z,99324.81
2024-01-29T08:35:18.624Z,99336.25
2024-01-29T08:55:20.923Z,99352.72
2024-01-29T09:15:22.857Z,99362.13
2024-01-29T09:35:24.785Z,99340.47
2024-01-29T09:55:27.951Z,99331.66
2024-01-29T10:15:30.037Z,99318.22
2024-01-29T10:35:32.024Z,99307.09
2024-01-29T10:55:33.921Z,99284.75
2024-01-29T11:15:35.854Z,99291.63
2024-01-29T11:35:43.287Z,99253.25
2024-01-29T11:55:49.592Z,99251.53
2024-01-29T12:15:52.042Z,99232.44
2024-01-29T12:35:54.198Z,99228.91
2024-01-29T12:55:56.326Z,99232.78
2024-01-29T13:15:58.593Z,99235.94
2024-01-29T13:36:01.281Z,99234.19
2024-01-29T13:56:03.102Z,99234.69
2024-01-29T14:16:05.658Z,99252.13
2024-01-29T14:36:07.796Z,99253.50
2024-01-29T14:56:10.063Z,99261.19
2024-01-29T15:16:12.055Z,99264.03
2024-01-29T15:36:14.065Z,99264.94
2024-01-29T15:56:16.592Z,99279.19
2024-01-29T16:16:19.001Z,99296.69
2024-01-29T16:36:24.019Z,99325.56
2024-01-29T16:56:30.786Z,99344.91
2024-01-29T17:16:32.812Z,99376.00
2024-01-29T17:36:34.865Z,99391.56
2024-01-29T17:56:38.249Z,99409.06
2024-01-29T18:16:40.538Z,99429.28
2024-01-29T18:36:42.574Z,99438.19
2024-01-29T18:56:44.596Z,99455.97
2024-01-29T19:16:46.531Z,99479.56
2024-01-29T19:36:50.427Z,99481.94
2024-01-29T19:56:52.391Z,99491.63
2024-01-29T20:16:54.874Z,99501.72
2024-01-29T20:36:57.239Z,99523.56
2024-01-29T20:57:01.483Z,99521.22
2024-01-29T21:17:03.495Z,99527.34
2024-01-29T21:37:05.428Z,99545.22
2024-01-29T21:57:07.237Z,99544.72
2024-01-29T22:17:12.083Z,99559.22
2024-01-29T22:37:13.870Z,99557.22
2024-01-29T22:57:15.710Z,99566.94
2024-01-29T23:17:17.508Z,99564.44
2024-01-29T23:37:25.604Z,99554.16
2024-01-29T23:57:27.462Z,99565.34
